createdAt,value
2023-04-21T00:03:39.053Z,85.21
2023-04-21T00:06:12.562Z,85.41
2023-04-21T00:08:46.476Z,85.44
2023-04-21T00:11:18.754Z,85.63
2023-04-21T00:13:50.873Z,85.13
2023-04-21T00:16:23.132Z,85.28
2023-04-21T00:18:58.543Z,85.01
2023-04-21T00:21:31.040Z,84.86
2023-04-21T00:24:03.273Z,85.16
2023-04-21T00:26:35.507Z,85.26
2023-04-21T00:29:07.629Z,85.04
2023-04-21T00:31:39.822Z,85.85
2023-04-21T00:34:11.962Z,85.80
2023-04-21T00:36:44.011Z,85.42
2023-04-21T00:39:16.127Z,85.70
2023-04-21T00:41:48.338Z,85.43
2023-04-21T00:44:20.424Z,85.30
2023-04-21T00:46:52.618Z,85.33
2023-04-21T00:49:25.949Z,84.11
2023-04-21T00:51:58.954Z,84.51
2023-04-21T00:54:31.379Z,84.35
2023-04-21T00:57:04.643Z,84.77
2023-04-21T00:59:36.938Z,85.02
2023-04-21T01:02:29.655Z,84.70
2023-04-21T01:05:02.403Z,84.95
2023-04-21T01:07:34.984Z,85.17
2023-04-21T01:10:08.249Z,85.17
2023-04-21T01:12:45.524Z,85.44
2023-04-21T01:15:18.309Z,85.76
2023-04-21T01:17:50.526Z,85.19
2023-04-21T01:20:22.664Z,85.17
2023-04-21T01:22:54.708Z,85.31
2023-04-21T01:25:28.754Z,85.05
2023-04-21T01:28:00.871Z,85.09
2023-04-21T01:30:33.013Z,85.29
2023-04-21T01:33:05.385Z,85.69
2023-04-21T01:35:37.498Z,84.39
2023-04-21T01:38:09.993Z,84.97
2023-04-21T01:40:43.216Z,84.14
2023-04-21T01:43:19.176Z,84.51
2023-04-21T01:45:52.830Z,85.42
2023-04-21T01:48:24.910Z,85.35
2023-04-21T01:50:57.657Z,85.38
2023-04-21T01:53:29.788Z,85.67
2023-04-21T01:56:02.580Z,85.16
2023-04-21T01:58:34.791Z,86.00
2023-04-21T02:01:08.390Z,85.88
2023-04-21T02:03:40.756Z,86.20
2023-04-21T02:06:14.291Z,86.05
2023-04-21T02:08:46.523Z,85.84
2023-04-21T02:11:18.623Z,86.29
2023-04-21T02:13:51.220Z,86.20
2023-04-21T02:16:26.992Z,86.59
2023-04-21T02:19:00.052Z,87.08
2023-04-21T02:21:32.845Z,87.46
2023-04-21T02:24:05.158Z,86.66
2023-04-21T02:26:37.226Z,86.70
2023-04-21T02:29:11.888Z,86.55
2023-04-21T02:31:57.789Z,86.03
2023-04-21T02:34:33.332Z,86.91
2023-04-21T02:37:05.387Z,86.90
2023-04-21T02:39:37.631Z,86.91
2023-04-21T02:42:09.749Z,86.58
2023-04-21T02:44:43.182Z,86.47
2023-04-21T02:47:16.883Z,86.46
2023-04-21T02:49:48.946Z,85.61
2023-04-21T02:52:21.019Z,85.74
2023-04-21T02:54:53.123Z,86.38
2023-04-21T02:57:25.155Z,85.80
2023-04-21T02:59:57.192Z,84.73
2023-04-21T03:02:31.655Z,85.91
2023-04-21T03:05:04.531Z,85.62
2023-04-21T03:07:36.752Z,85.46
2023-04-21T03:10:09.217Z,85.37
2023-04-21T03:12:41.289Z,84.71
2023-04-21T03:15:14.516Z,84.95
2023-04-21T03:17:46.634Z,84.96
2023-04-21T03:20:18.768Z,85.20
2023-04-21T03:22:53.682Z,85.61
2023-04-21T03:25:27.907Z,85.54
2023-04-21T03:28:00.005Z,85.81
2023-04-21T03:30:32.214Z,86.02
2023-04-21T03:33:05.000Z,86.22
2023-04-21T03:35:37.235Z,86.24
2023-04-21T03:38:09.422Z,86.06
2023-04-21T03:40:41.799Z,86.55
2023-04-21T03:43:13.923Z,86.79
2023-04-21T03:45:46.004Z,87.07
2023-04-21T03:48:18.119Z,87.68
2023-04-21T03:51:39.831Z,87.87
2023-04-21T03:54:11.916Z,87.58
2023-04-21T03:56:43.949Z,87.43
2023-04-21T03:59:16.010Z,87.51
2023-04-21T04:01:48.212Z,87.24
2023-04-21T04:04:20.648Z,86.24
2023-04-21T04:06:52.868Z,85.88
2023-04-21T04:09:25.059Z,86.28
2023-04-21T04:11:57.779Z,86.11
2023-04-21T04:14:30.537Z,86.39
2023-04-21T04:17:02.712Z,86.45
2023-04-21T04:19:37.080Z,85.98
2023-04-21T04:22:11.279Z,85.57
2023-04-21T04:24:45.295Z,85.98
2023-04-21T04:27:18.199Z,86.34
2023-04-21T04:29:50.446Z,86.20
2023-04-21T04:32:22.641Z,86.29
2023-04-21T04:34:56.164Z,86.36
2023-04-21T04:37:28.398Z,86.40
2023-04-21T04:40:00.853Z,86.49
2023-04-21T04:42:33.640Z,86.20
2023-04-21T04:45:08.570Z,86.06
2023-04-21T04:47:40.989Z,85.79
2023-04-21T04:50:13.302Z,86.14
2023-04-21T04:52:47.225Z,85.55
2023-04-21T04:55:19.463Z,86.66
2023-04-21T04:58:09.035Z,86.43
2023-04-21T05:00:41.340Z,85.79
2023-04-21T05:03:13.646Z,85.21
2023-04-21T05:05:48.016Z,85.15
2023-04-21T05:08:20.091Z,85.21
2023-04-21T05:10:52.188Z,85.90
2023-04-21T05:13:24.302Z,85.69
2023-04-21T05:16:03.504Z,85.23
2023-04-21T05:18:35.816Z,86.02
2023-04-21T05:21:07.894Z,86.66
2023-04-21T05:23:40.083Z,86.15
2023-04-21T05:26:12.116Z,86.03
2023-04-21T05:28:44.167Z,85.08
2023-04-21T05:31:16.401Z,85.86
2023-04-21T05:33:48.501Z,85.76
2023-04-21T05:36:20.639Z,85.21
2023-04-21T05:38:52.899Z,84.81
2023-04-21T05:41:25.082Z,84.67
2023-04-21T05:43:57.131Z,83.83
2023-04-21T05:46:30.433Z,83.86
2023-04-21T05:49:02.775Z,83.58
2023-04-21T05:51:34.874Z,83.09
2023-04-21T05:54:06.949Z,81.90
2023-04-21T05:56:39.011Z,82.68
2023-04-21T05:59:11.907Z,82.07
2023-04-21T06:01:44.367Z,81.54
2023-04-21T06:04:16.920Z,81.67
2023-04-21T06:06:49.221Z,81.76
2023-04-21T06:09:21.578Z,81.62
2023-04-21T06:11:53.760Z,81.20
2023-04-21T06:14:25.897Z,80.32
2023-04-21T06:16:58.094Z,79.90
2023-04-21T06:19:30.122Z,79.76
2023-04-21T06:22:02.223Z,79.77
2023-04-21T06:24:34.427Z,80.67
2023-04-21T06:27:13.702Z,80.08
2023-04-21T06:29:45.746Z,79.55
2023-04-21T06:32:17.891Z,79.46
2023-04-21T06:36:15.141Z,79.29
2023-04-21T06:38:49.718Z,79.45
2023-04-21T06:41:26.935Z,78.45
2023-04-21T06:43:59.093Z,78.30
2023-04-21T06:46:31.553Z,77.89
2023-04-21T06:49:04.344Z,76.82
2023-04-21T06:51:37.657Z,76.80
2023-04-21T06:54:09.825Z,76.79
2023-04-21T06:56:43.122Z,75.93
2023-04-21T06:59:18.280Z,75.54
2023-04-21T07:01:52.531Z,75.12
2023-04-21T07:04:24.749Z,75.26
2023-04-21T07:06:56.940Z,75.43
2023-04-21T07:09:29.152Z,74.67
2023-04-21T07:12:01.339Z,73.84
2023-04-21T07:14:33.432Z,72.50
2023-04-21T07:17:05.663Z,72.19
2023-04-21T07:19:38.031Z,71.06
2023-04-21T07:22:10.143Z,70.60
2023-04-21T07:24:42.176Z,70.42
2023-04-21T07:27:14.209Z,69.95
2023-04-21T07:29:46.326Z,68.73
2023-04-21T07:32:18.434Z,67.94
2023-04-21T07:34:50.798Z,66.71
2023-04-21T07:37:23.999Z,67.21
2023-04-21T07:39:57.147Z,66.89
2023-04-21T07:42:29.246Z,65.12
2023-04-21T07:45:02.765Z,62.82
2023-04-21T07:47:35.512Z,62.28
2023-04-21T07:50:08.870Z,55.98
2023-04-21T07:52:41.129Z,52.98
2023-04-21T07:55:13.284Z,48.48
2023-04-21T07:57:45.497Z,48.15
2023-04-21T08:00:18.024Z,43.11
2023-04-21T08:02:50.176Z,42.75
2023-04-21T08:05:22.593Z,41.29
2023-04-21T08:07:57.642Z,38.49
2023-04-21T08:10:30.920Z,38.49
2023-04-21T08:13:06.562Z,36.75
2023-04-21T08:15:38.769Z,34.88
2023-04-21T08:18:26.134Z,32.46
2023-04-21T08:20:58.723Z,33.62
2023-04-21T08:23:33.595Z,33.13
2023-04-21T08:26:06.089Z,31.96
2023-04-21T08:28:38.142Z,31.04
2023-04-21T08:31:10.411Z,31.66
2023-04-21T08:33:53.988Z,32.03
2023-04-21T08:36:33.410Z,31.90
2023-04-21T08:39:05.767Z,31.44
2023-04-21T08:41:42.023Z,32.13
2023-04-21T08:44:14.198Z,30.69
2023-04-21T08:47:11.892Z,31.68
2023-04-21T08:49:47.184Z,31.42
2023-04-21T08:52:19.390Z,30.31
2023-04-21T08:54:53.430Z,29.66
2023-04-21T08:57:25.524Z,28.57
2023-04-21T08:59:57.628Z,27.67
2023-04-21T09:02:29.855Z,26.91
2023-04-21T09:05:02.463Z,26.06
2023-04-21T09:07:39.621Z,24.34
2023-04-21T09:10:11.725Z,24.20
2023-04-21T09:12:51.455Z,25.00
2023-04-21T09:15:23.691Z,26.28
2023-04-21T09:17:57.386Z,26.70
2023-04-21T09:20:29.500Z,25.45
2023-04-21T09:23:06.154Z,24.33
2023-04-21T09:25:43.634Z,24.86
2023-04-21T09:28:16.541Z,24.76
2023-04-21T09:30:57.547Z,23.56
2023-04-21T09:33:45.705Z,23.79
2023-04-21T09:36:29.332Z,24.36
2023-04-21T09:39:30.069Z,24.32
2023-04-21T09:41:57.585Z,24.43
2023-04-21T09:44:33.917Z,24.84
2023-04-21T09:47:15.161Z,25.28
2023-04-21T09:49:52.244Z,25.01
2023-04-21T09:52:27.644Z,24.71
2023-04-21T09:55:04.421Z,24.63
2023-04-21T09:57:40.255Z,23.93
2023-04-21T10:00:15.763Z,23.74
2023-04-21T10:02:51.963Z,22.30
2023-04-21T10:05:24.737Z,21.48
2023-04-21T10:07:59.532Z,20.19
2023-04-21T10:10:32.140Z,20.60
2023-04-21T10:13:05.103Z,21.98
2023-04-21T10:15:42.175Z,21.41
2023-04-21T10:18:25.609Z,21.89
2023-04-21T10:21:10.968Z,23.88
2023-04-21T10:23:54.871Z,24.11
2023-04-21T10:26:36.355Z,24.81
2023-04-21T10:29:10.115Z,22.94
2023-04-21T10:31:45.099Z,22.43
2023-04-21T10:35:10.776Z,22.32
2023-04-21T10:37:44.592Z,21.15
2023-04-21T10:40:44.130Z,19.85
2023-04-21T10:43:56.122Z,20.22
2023-04-21T10:46:49.465Z,19.68
2023-04-21T10:52:21.463Z,18.38
2023-04-21T10:54:56.542Z,18.53
2023-04-21T10:57:34.908Z,17.86
2023-04-21T11:00:09.143Z,17.35
2023-04-21T11:02:44.657Z,18.00
2023-04-21T11:05:17.528Z,17.46
2023-04-21T11:07:49.655Z,17.32
2023-04-21T11:10:21.886Z,17.67
2023-04-21T11:12:58.487Z,16.81
2023-04-21T11:15:31.173Z,17.88
2023-04-21T11:18:03.736Z,17.61
2023-04-21T11:20:41.786Z,17.37
2023-04-21T11:23:23.080Z,16.63
2023-04-21T11:25:58.223Z,17.68
2023-04-21T11:28:30.501Z,19.45
2023-04-21T11:31:02.710Z,19.39
2023-04-21T11:33:39.457Z,18.73
2023-04-21T11:36:11.701Z,19.58
2023-04-21T11:38:43.993Z,18.67
2023-04-21T11:41:23.928Z,17.57
2023-04-21T11:43:56.025Z,17.17
2023-04-21T11:46:29.485Z,17.69
2023-04-21T11:49:05.079Z,18.75
2023-04-21T11:51:38.865Z,20.24
2023-04-21T11:54:21.525Z,20.90
2023-04-21T11:56:55.115Z,22.86
2023-04-21T11:59:29.432Z,22.09
2023-04-21T12:02:01.889Z,23.39
2023-04-21T12:04:34.952Z,20.43
2023-04-21T12:07:07.371Z,21.04
2023-04-21T12:09:41.266Z,21.14
2023-04-21T12:12:13.557Z,19.74
2023-04-21T12:14:46.280Z,17.49
2023-04-21T12:17:18.594Z,17.08
2023-04-21T12:19:50.846Z,16.27
2023-04-21T12:22:23.753Z,16.01
2023-04-21T12:24:55.809Z,15.44
2023-04-21T12:27:28.680Z,13.69
2023-04-21T12:30:01.457Z,13.55
2023-04-21T12:32:33.592Z,12.94
2023-04-21T12:35:07.966Z,11.79
2023-04-21T12:37:40.254Z,11.85
2023-04-21T12:40:13.672Z,11.56
2023-04-21T12:42:45.994Z,12.23
2023-04-21T12:45:20.964Z,11.33
2023-04-21T12:47:53.137Z,11.75
2023-04-21T12:50:27.193Z,12.23
2023-04-21T12:52:59.855Z,11.72
2023-04-21T12:55:32.602Z,12.26
2023-04-21T12:58:04.916Z,11.93
2023-04-21T13:00:37.806Z,12.35
2023-04-21T13:03:10.103Z,11.55
2023-04-21T13:05:43.770Z,13.75
2023-04-21T13:08:17.785Z,12.42
2023-04-21T13:10:50.045Z,12.74
2023-04-21T13:13:22.121Z,12.88
2023-04-21T13:15:54.477Z,12.61
2023-04-21T13:18:26.775Z,12.62
2023-04-21T13:20:58.949Z,13.43
2023-04-21T13:23:31.170Z,14.09
2023-04-21T13:26:05.960Z,14.01
2023-04-21T13:28:38.574Z,14.79
2023-04-21T13:31:26.696Z,14.41
2023-04-21T13:34:00.127Z,14.53
2023-04-21T13:36:33.487Z,15.30
2023-04-21T13:39:09.568Z,14.21
2023-04-21T13:41:41.877Z,14.53
2023-04-21T13:44:14.073Z,14.73
2023-04-21T13:46:47.031Z,14.71
2023-04-21T13:49:19.145Z,14.47
2023-04-21T13:51:51.346Z,14.52
2023-04-21T13:54:24.201Z,14.75
2023-04-21T13:56:57.531Z,15.37
2023-04-21T13:59:29.900Z,16.24
2023-04-21T14:02:02.449Z,16.17
2023-04-21T14:04:35.227Z,16.62
2023-04-21T14:07:10.811Z,16.36
2023-04-21T14:09:42.857Z,17.21
2023-04-21T14:12:15.155Z,16.47
2023-04-21T14:14:47.685Z,17.15
2023-04-21T14:17:19.886Z,18.18
2023-04-21T14:19:53.783Z,18.26
2023-04-21T14:22:33.612Z,19.02
2023-04-21T14:25:06.073Z,18.47
2023-04-21T14:27:39.281Z,18.20
2023-04-21T14:30:32.334Z,19.40
2023-04-21T14:33:05.839Z,19.31
2023-04-21T14:35:40.794Z,20.25
2023-04-21T14:38:12.922Z,19.92
2023-04-21T14:40:45.258Z,20.79
2023-04-21T14:43:19.711Z,21.35
2023-04-21T14:45:52.742Z,21.58
2023-04-21T14:48:24.969Z,21.06
2023-04-21T14:52:24.388Z,21.04
2023-04-21T14:54:56.520Z,21.31
2023-04-21T14:57:28.674Z,21.96
2023-04-21T15:00:01.050Z,21.47
2023-04-21T15:02:33.359Z,21.94
2023-04-21T15:05:09.025Z,21.72
2023-04-21T15:07:41.310Z,22.19
2023-04-21T15:10:13.807Z,22.13
2023-04-21T15:12:47.808Z,21.90
2023-04-21T15:15:20.104Z,22.30
2023-04-21T15:17:52.258Z,21.91
2023-04-21T15:20:32.737Z,22.71
2023-04-21T15:23:13.360Z,23.26
2023-04-21T15:25:45.647Z,22.63
2023-04-21T15:28:17.862Z,23.18
2023-04-21T15:30:50.056Z,23.56
2023-04-21T15:33:22.177Z,23.12
2023-04-21T15:35:54.297Z,22.85
2023-04-21T15:38:26.515Z,23.80
2023-04-21T15:41:01.092Z,23.54
2023-04-21T15:43:35.570Z,23.38
2023-04-21T15:46:13.552Z,23.99
2023-04-21T15:48:45.768Z,23.19
2023-04-21T15:51:19.396Z,24.54
2023-04-21T15:53:51.507Z,23.93
2023-04-21T15:56:23.551Z,24.63
2023-04-21T15:58:55.938Z,24.62
2023-04-21T16:01:28.144Z,24.50
2023-04-21T16:04:00.446Z,24.83
2023-04-21T16:06:33.449Z,24.91
2023-04-21T16:09:05.628Z,23.93
2023-04-21T16:11:37.884Z,23.32
2023-04-21T16:14:10.241Z,23.68
2023-04-21T16:16:46.007Z,24.11
2023-04-21T16:19:21.322Z,23.95
2023-04-21T16:21:53.553Z,23.44
2023-04-21T16:24:26.216Z,23.65
2023-04-21T16:26:59.445Z,24.09
2023-04-21T16:29:31.891Z,23.84
2023-04-21T16:32:07.137Z,23.58
2023-04-21T16:34:39.804Z,23.83
2023-04-21T16:37:12.243Z,25.05
2023-04-21T16:39:44.373Z,24.71
2023-04-21T16:42:16.798Z,25.18
2023-04-21T16:44:49.195Z,24.87
2023-04-21T16:47:21.464Z,24.73
2023-04-21T16:49:53.661Z,25.42
2023-04-21T16:52:28.745Z,24.99
2023-04-21T16:55:01.259Z,25.18
2023-04-21T17:01:26.202Z,25.72
2023-04-21T17:04:53.333Z,25.56
2023-04-21T17:15:42.876Z,25.64
2023-04-21T17:18:33.565Z,26.23
2023-04-21T17:32:33.941Z,26.63
2023-04-21T17:39:22.816Z,26.69
2023-04-21T17:42:36.321Z,27.24
2023-04-21T17:47:25.437Z,26.74
2023-04-21T17:48:46.590Z,26.70
2023-04-21T17:51:24.663Z,27.29
2023-04-21T18:02:55.244Z,27.49
2023-04-21T18:06:00.962Z,27.82
2023-04-21T18:09:16.678Z,28.03
2023-04-21T18:12:03.064Z,28.16
2023-04-21T18:14:36.271Z,28.74
2023-04-21T18:17:09.148Z,28.72
2023-04-21T18:19:41.458Z,29.16
2023-04-21T18:22:13.916Z,29.12
2023-04-21T18:24:46.994Z,29.59
2023-04-21T18:27:19.224Z,29.82
2023-04-21T18:29:51.592Z,30.08
2023-04-21T18:32:23.858Z,30.12
2023-04-21T18:34:56.188Z,29.88
2023-04-21T18:37:28.481Z,30.18
2023-04-21T18:40:00.873Z,29.65
2023-04-21T18:42:33.876Z,30.79
2023-04-21T18:45:07.135Z,30.41
2023-04-21T18:47:39.503Z,31.00
2023-04-21T18:50:12.449Z,30.43
2023-04-21T18:52:51.066Z,31.25
2023-04-21T18:55:38.084Z,31.31
2023-04-21T18:58:10.313Z,31.40
2023-04-21T19:00:42.594Z,31.35
2023-04-21T19:03:15.426Z,31.41
2023-04-21T19:05:47.994Z,31.60
2023-04-21T19:08:30.449Z,31.78
2023-04-21T19:11:18.202Z,31.73
2023-04-21T19:13:50.765Z,31.94
2023-04-21T19:16:24.539Z,31.75
2023-04-21T19:18:56.930Z,32.50
2023-04-21T19:21:30.061Z,32.69
2023-04-21T19:24:02.587Z,33.09
2023-04-21T19:26:35.133Z,32.69
2023-04-21T19:29:11.846Z,33.17
2023-04-21T19:31:44.545Z,32.96
2023-04-21T19:34:17.506Z,33.25
2023-04-21T19:36:51.868Z,33.73
2023-04-21T19:39:24.414Z,33.73
2023-04-21T19:41:58.145Z,33.89
2023-04-21T19:44:30.288Z,34.00
2023-04-21T19:47:02.901Z,33.59
2023-04-21T19:49:35.489Z,34.06
2023-04-21T19:52:08.280Z,34.00
2023-04-21T19:54:41.025Z,34.15
2023-04-21T19:57:13.626Z,34.22
2023-04-21T19:59:45.896Z,34.25
2023-04-21T20:02:18.089Z,34.85
2023-04-21T20:04:50.930Z,35.02
2023-04-21T20:07:23.533Z,34.97
2023-04-21T20:09:55.791Z,34.70
2023-04-21T20:12:28.192Z,35.51
2023-04-21T20:15:01.402Z,34.72
2023-04-21T20:17:35.006Z,35.31
2023-04-21T20:23:43.149Z,35.66
2023-04-21T20:26:16.633Z,35.46
2023-04-21T20:28:50.988Z,35.79
2023-04-21T20:31:25.879Z,35.61
2023-04-21T20:33:58.169Z,35.67
2023-04-21T20:36:30.472Z,35.43
2023-04-21T20:39:05.168Z,35.48
2023-04-21T20:41:37.533Z,35.76
2023-04-21T20:44:09.960Z,35.80
2023-04-21T20:46:42.290Z,35.85
2023-04-21T20:49:17.652Z,35.99
2023-04-21T20:52:00.097Z,36.05
2023-04-21T20:54:37.767Z,35.62
2023-04-21T20:57:58.578Z,35.60
2023-04-21T21:00:39.809Z,35.32
2023-04-21T21:03:14.048Z,35.48
2023-04-21T21:05:46.607Z,35.57
2023-04-21T21:08:19.130Z,35.71
2023-04-21T21:10:51.418Z,35.77
2023-04-21T21:14:08.083Z,35.84
2023-04-21T21:16:44.315Z,35.86
2023-04-21T21:19:16.557Z,36.38
2023-04-21T21:21:48.983Z,36.36
2023-04-21T21:24:21.528Z,36.50
2023-04-21T21:26:53.836Z,36.40
2023-04-21T21:29:26.395Z,36.37
2023-04-21T21:31:58.683Z,36.53
2023-04-21T21:34:32.113Z,36.73
2023-04-21T21:37:06.997Z,37.32
2023-04-21T21:39:39.559Z,37.42
2023-04-21T21:42:12.137Z,37.05
2023-04-21T21:44:44.343Z,37.50
2023-04-21T21:47:17.705Z,38.00
2023-04-21T21:49:55.025Z,38.14
2023-04-21T21:52:28.714Z,37.71
2023-04-21T21:55:01.068Z,37.83
2023-04-21T21:57:33.736Z,38.33
2023-04-21T22:00:11.938Z,38.75
2023-04-21T22:02:44.177Z,38.43
2023-04-21T22:05:16.556Z,38.64
2023-04-21T22:07:49.299Z,38.82
2023-04-21T22:10:21.760Z,39.15
2023-04-21T22:12:54.470Z,39.67
2023-04-21T22:15:26.709Z,39.62
2023-04-21T22:17:59.416Z,39.85
2023-04-21T22:20:31.655Z,39.80
2023-04-21T22:23:04.623Z,39.64
2023-04-21T22:25:37.318Z,40.18
2023-04-21T22:28:09.775Z,39.98
2023-04-21T22:30:42.129Z,39.47
2023-04-21T22:33:17.324Z,40.16
2023-04-21T22:35:49.784Z,40.24
2023-04-21T22:38:22.025Z,40.55
2023-04-21T22:40:54.576Z,40.64
2023-04-21T22:43:29.675Z,40.97
2023-04-21T22:46:02.626Z,40.86
2023-04-21T22:48:36.510Z,41.34
2023-04-21T22:51:09.319Z,41.37
2023-04-21T22:53:41.569Z,41.76
2023-04-21T22:56:13.825Z,42.26
2023-04-21T22:58:45.965Z,42.12
2023-04-21T23:01:18.251Z,42.50
2023-04-21T23:03:51.122Z,42.53
2023-04-21T23:06:23.539Z,43.06
2023-04-21T23:08:55.746Z,43.21
2023-04-21T23:11:27.955Z,42.92
2023-04-21T23:14:00.053Z,42.92
2023-04-21T23:16:32.299Z,43.25
2023-04-21T23:19:04.619Z,43.52
2023-04-21T23:21:36.858Z,43.36
2023-04-21T23:24:09.070Z,43.60
2023-04-21T23:26:41.430Z,43.52
2023-04-21T23:29:13.630Z,43.73
2023-04-21T23:31:45.893Z,43.92
2023-04-21T23:34:18.018Z,43.08
2023-04-21T23:36:50.168Z,43.64
2023-04-21T23:39:22.644Z,44.25
2023-04-21T23:41:54.923Z,43.32
2023-04-21T23:44:26.993Z,43.48
2023-04-21T23:46:59.223Z,43.52
2023-04-21T23:49:32.754Z,43.80
2023-04-21T23:52:04.910Z,43.66
2023-04-21T23:54:37.009Z,43.15
2023-04-21T23:57:09.149Z,44.14
2023-04-21T23:59:41.805Z,43.64
